Time;durP1;ratioP1;P1;durP2;ratioP2;P2;SDS_P1;SDS_P2;PMS_P1;PMS_P2;Temp;Humidity;BMP_temperature;BMP_pressure;BME280_temperature;BME280_humidity;BME280_pressure;Samples;Min_cycle;Max_cycle;Signal;HPM_P1;HPM_P2
2023/01/05 00:01:29;;;;;;;2.97;1.15;;;10.90;99.90;;;;;;5014141;28;20112;-66
2023/01/05 00:03:54;;;;;;;4.68;0.90;;;10.80;99.90;;;;;;4995227;28;20152;-65
2023/01/05 00:06:20;;;;;;;8.88;1.38;;;10.80;99.90;;;;;;5012946;28;20084;-65
2023/01/05 00:08:46;;;;;;;5.38;1.20;;;10.80;99.90;;;;;;5016540;28;20029;-66
2023/01/05 00:22:29;;;;;;;7.45;1.33;;;10.70;99.90;;;;;;5011357;28;20413;-66
2023/01/05 00:25:01;;;;;;;7.22;1.60;;;10.60;99.90;;;;;;5014958;28;20055;-65
2023/01/05 00:27:28;;;;;;;7.70;1.13;;;10.60;99.90;;;;;;5015898;28;20761;-65
2023/01/05 00:29:54;;;;;;;7.00;1.63;;;10.60;99.90;;;;;;4996193;28;20037;-66
2023/01/05 00:32:21;;;;;;;9.65;1.45;;;10.60;99.90;;;;;;4999782;28;20026;-66
2023/01/05 00:34:47;;;;;;;6.80;1.23;;;10.60;99.90;;;;;;5022095;28;20129;-66
2023/01/05 00:37:13;;;;;;;7.68;1.38;;;10.70;99.90;;;;;;5002222;28;20042;-65
2023/01/05 00:39:39;;;;;;;7.13;1.40;;;10.70;99.90;;;;;;5011600;28;20028;-66
2023/01/05 00:42:04;;;;;;;7.40;1.65;;;10.70;99.90;;;;;;5013274;28;20033;-65
2023/01/05 00:44:30;;;;;;;9.88;1.80;;;10.80;99.90;;;;;;5021456;28;20040;-66
2023/01/05 00:46:56;;;;;;;8.82;1.33;;;10.80;99.90;;;;;;4992657;28;20825;-65
2023/01/05 00:49:22;;;;;;;8.32;1.52;;;10.90;99.90;;;;;;5010367;28;20041;-66
2023/01/05 00:51:48;;;;;;;4.28;0.95;;;10.90;99.90;;;;;;4993970;28;20021;-66
2023/01/05 00:54:13;;;;;;;8.90;1.05;;;10.90;99.90;;;;;;4999313;28;20025;-67
2023/01/05 00:56:39;;;;;;;3.70;1.02;;;11.00;99.90;;;;;;4999673;28;20025;-65
2023/01/05 00:59:06;;;;;;;7.20;0.98;;;11.10;99.90;;;;;;4998277;28;20102;-66
2023/01/05 01:01:31;;;;;;;5.00;0.90;;;11.10;99.90;;;;;;5015996;28;20021;-66
2023/01/05 01:03:57;;;;;;;7.80;1.23;;;11.10;99.90;;;;;;5001932;28;20076;-66
2023/01/05 01:06:23;;;;;;;8.80;1.15;;;11.10;99.90;;;;;;4993655;28;20128;-66
2023/01/05 01:08:49;;;;;;;6.40;1.10;;;11.10;99.90;;;;;;5008150;28;20061;-66
2023/01/05 01:11:15;;;;;;;7.97;1.00;;;11.00;99.80;;;;;;5009226;28;20169;-66
2023/01/05 01:13:44;;;;;;;7.50;1.05;;;11.00;99.80;;;;;;4998335;28;20033;-66
2023/01/05 01:16:13;;;;;;;3.72;0.98;;;10.90;99.90;;;;;;4995422;28;20034;-66
2023/01/05 01:18:40;;;;;;;7.97;1.08;;;11.00;99.90;;;;;;5001469;28;20082;-66
2023/01/05 01:21:07;;;;;;;5.07;0.88;;;11.00;99.90;;;;;;5011599;28;20041;-66
2023/01/05 01:23:34;;;;;;;5.82;1.20;;;11.00;99.80;;;;;;5012457;28;20033;-66
2023/01/05 01:26:07;;;;;;;4.68;1.10;;;11.00;99.90;;;;;;5013992;28;20030;-65
2023/01/05 01:28:34;;;;;;;8.13;1.13;;;11.00;99.90;;;;;;5010282;28;20040;-66
2023/01/05 01:31:00;;;;;;;7.05;1.33;;;11.10;99.80;;;;;;4997776;28;20034;-66
2023/01/05 01:33:27;;;;;;;7.25;0.95;;;11.10;99.30;;;;;;5018006;28;20033;-66
2023/01/05 01:35:53;;;;;;;5.63;1.10;;;11.10;99.40;;;;;;5013467;28;20034;-66
2023/01/05 01:38:20;;;;;;;7.03;1.38;;;11.10;99.30;;;;;;5000936;28;20033;-66
2023/01/05 01:40:48;;;;;;;7.18;1.20;;;11.20;99.40;;;;;;5002688;28;20029;-65
2023/01/05 01:43:33;;;;;;;5.22;1.63;;;11.30;99.30;;;;;;5017426;28;20113;-66
2023/01/05 01:46:01;;;;;;;5.75;1.20;;;11.30;99.10;;;;;;4996271;28;20582;-66
2023/01/05 01:48:27;;;;;;;6.55;1.00;;;11.30;99.10;;;;;;5015610;28;20026;-65
2023/01/05 01:50:55;;;;;;;7.03;1.40;;;11.30;98.80;;;;;;4992797;28;20024;-67
2023/01/05 01:53:32;;;;;;;6.60;1.50;;;11.20;99.00;;;;;;4995973;28;20654;-66
2023/01/05 01:56:02;;;;;;;11.85;1.33;;;11.20;99.00;;;;;;4997826;28;20111;-65
2023/01/05 01:58:30;;;;;;;5.43;0.98;;;11.20;98.90;;;;;;4998486;28;20037;-66
2023/01/05 02:01:00;;;;;;;7.45;1.40;;;11.20;98.80;;;;;;5004880;28;20442;-66
2023/01/05 02:03:30;;;;;;;6.00;1.00;;;11.20;98.60;;;;;;5007221;28;20498;-66
2023/01/05 02:05:56;;;;;;;6.00;1.02;;;11.10;98.30;;;;;;4998420;28;20150;-65
2023/01/05 02:08:30;;;;;;;7.95;1.45;;;11.10;98.80;;;;;;5023008;28;20049;-67
2023/01/05 02:11:04;;;;;;;4.28;1.58;;;11.10;98.90;;;;;;4990644;28;20033;-66
2023/01/05 02:13:50;;;;;;;4.25;1.10;;;11.10;98.50;;;;;;4998412;28;20042;-66
2023/01/05 02:16:33;;;;;;;7.25;1.40;;;11.10;98.70;;;;;;5007592;28;20517;-65
2023/01/05 02:19:07;;;;;;;8.52;1.48;;;11.10;98.50;;;;;;5003130;28;20103;-65
2023/01/05 02:21:50;;;;;;;7.50;1.35;;;11.10;98.40;;;;;;5021126;28;20119;-66
2023/01/05 02:24:23;;;;;;;7.68;1.27;;;11.10;98.50;;;;;;5000374;28;20044;-66
2023/01/05 02:26:49;;;;;;;8.75;1.10;;;11.10;98.30;;;;;;5003141;28;20732;-67
2023/01/05 02:29:27;;;;;;;2.15;0.98;;;11.10;98.50;;;;;;4995859;28;20083;-66
2023/01/05 02:32:03;;;;;;;2.65;0.82;;;11.10;98.30;;;;;;4996043;28;20114;-65
2023/01/05 02:34:39;;;;;;;9.93;1.65;;;11.10;98.30;;;;;;4994811;28;20040;-65
2023/01/05 02:37:23;;;;;;;5.88;1.27;;;11.20;98.10;;;;;;5018857;28;20045;-66
2023/01/05 02:39:52;;;;;;;9.77;1.08;;;11.20;97.70;;;;;;5011874;28;20032;-66
2023/01/05 02:42:27;;;;;;;3.75;0.93;;;11.10;97.70;;;;;;5023630;28;20026;-66
2023/01/05 02:44:53;;;;;;;4.60;0.95;;;11.10;97.60;;;;;;4997894;28;20032;-65
2023/01/05 02:47:28;;;;;;;6.13;1.45;;;11.00;97.80;;;;;;4999689;28;20041;-66
2023/01/05 02:50:10;;;;;;;6.97;1.45;;;11.00;98.00;;;;;;4997008;28;20057;-66
2023/01/05 02:53:05;;;;;;;6.25;1.52;;;11.00;98.00;;;;;;5012060;28;20596;-66
2023/01/05 02:55:54;;;;;;;6.65;1.10;;;11.00;98.00;;;;;;4998038;28;20041;-65
2023/01/05 02:58:57;;;;;;;4.05;1.10;;;11.00;97.80;;;;;;4993893;28;20038;-65
2023/01/05 03:01:48;;;;;;;5.55;1.00;;;11.00;97.70;;;;;;4969127;28;20391;-65
2023/01/05 03:04:28;;;;;;;10.27;3.17;;;10.90;98.00;;;;;;4997264;28;20084;-66
2023/01/05 03:07:11;;;;;;;5.10;1.30;;;10.90;98.10;;;;;;5002181;28;20593;-65
2023/01/05 03:09:39;;;;;;;5.55;1.10;;;11.00;97.90;;;;;;5008891;28;20132;-65
2023/01/05 03:15:08;;;;;;;4.75;1.13;;;11.00;97.70;;;;;;5010728;28;20025;-65
2023/01/05 03:17:48;;;;;;;5.05;1.08;;;11.00;97.90;;;;;;5017162;28;20510;-65
2023/01/05 03:20:21;;;;;;;7.40;1.27;;;11.10;97.80;;;;;;4998276;28;20049;-66
2023/01/05 03:37:53;;;;;;;2.33;0.63;;;11.20;97.70;;;;;;5012061;28;20041;-66
2023/01/05 03:40:32;;;;;;;4.90;1.38;;;11.10;98.00;;;;;;5002143;28;20037;-66
2023/01/05 03:42:59;;;;;;;5.32;1.13;;;11.10;98.20;;;;;;5014560;28;20040;-66
2023/01/05 03:45:43;;;;;;;3.50;0.70;;;11.20;98.20;;;;;;5003617;28;20034;-65
2023/01/05 03:48:14;;;;;;;7.53;0.95;;;11.20;98.20;;;;;;4999449;28;20064;-66
2023/01/05 03:50:40;;;;;;;5.10;0.70;;;11.10;98.50;;;;;;4998219;28;20052;-66
2023/01/05 03:53:10;;;;;;;5.00;1.02;;;11.10;98.50;;;;;;5001810;28;20037;-66
2023/01/05 03:55:36;;;;;;;3.67;0.82;;;11.20;98.10;;;;;;5001810;28;20037;-65
2023/01/05 03:58:03;;;;;;;2.45;0.98;;;11.20;98.40;;;;;;4995846;28;20080;-65
2023/01/05 04:00:29;;;;;;;8.48;1.52;;;11.20;98.50;;;;;;5015794;28;20027;-66
2023/01/05 04:03:02;;;;;;;6.50;1.10;;;11.20;98.90;;;;;;5000519;28;20048;-63
2023/01/05 04:05:28;;;;;;;5.25;1.10;;;11.20;98.80;;;;;;5007802;28;20042;-63
2023/01/05 04:07:54;;;;;;;7.53;1.55;;;11.20;98.60;;;;;;4996496;28;20029;-64
2023/01/05 04:10:20;;;;;;;8.88;1.25;;;11.20;98.80;;;;;;4997448;28;20035;-64
2023/01/05 04:12:48;;;;;;;8.05;1.88;;;11.20;98.70;;;;;;4993003;28;20038;-64
2023/01/05 04:15:14;;;;;;;9.18;1.50;;;11.30;98.60;;;;;;4995066;28;20029;-63
2023/01/05 04:17:40;;;;;;;6.55;1.27;;;11.30;99.00;;;;;;4990783;28;20505;-64
2023/01/05 04:20:09;;;;;;;7.28;1.20;;;11.30;99.40;;;;;;4994371;28;20397;-64
2023/01/05 04:22:36;;;;;;;6.88;1.20;;;11.20;99.70;;;;;;4989989;28;20030;-64
2023/01/05 04:25:02;;;;;;;4.18;0.98;;;11.30;99.90;;;;;;4991363;28;20095;-64
2023/01/05 04:27:30;;;;;;;5.70;1.40;;;11.30;99.90;;;;;;4998298;28;20141;-64
2023/01/05 04:29:55;;;;;;;4.85;1.33;;;11.30;99.90;;;;;;5012957;28;20454;-64
2023/01/05 04:32:21;;;;;;;10.75;1.58;;;11.30;99.90;;;;;;4996285;28;20048;-64
2023/01/05 04:34:47;;;;;;;5.43;1.10;;;11.20;99.90;;;;;;4997928;28;20095;-64
2023/01/05 04:37:13;;;;;;;5.75;1.17;;;11.10;99.90;;;;;;5010983;28;20107;-64
2023/01/05 04:39:38;;;;;;;7.60;1.48;;;11.10;99.90;;;;;;5014916;28;20059;-63
2023/01/05 04:42:06;;;;;;;4.68;1.30;;;11.20;99.90;;;;;;4988108;28;20025;-64
2023/01/05 04:44:33;;;;;;;7.75;1.30;;;11.20;99.90;;;;;;4997565;28;20032;-64
2023/01/05 04:47:02;;;;;;;7.03;1.42;;;11.20;99.90;;;;;;4989190;28;20022;-64
2023/01/05 04:49:28;;;;;;;12.70;1.52;;;11.20;99.90;;;;;;5000262;28;20116;-64
2023/01/05 04:51:54;;;;;;;10.50;1.42;;;11.10;99.90;;;;;;4998282;28;20033;-63
2023/01/05 04:54:22;;;;;;;7.63;2.13;;;11.00;99.90;;;;;;4996163;28;20190;-63
2023/01/05 04:56:48;;;;;;;8.90;1.65;;;11.00;99.90;;;;;;4999815;28;20368;-63
2023/01/05 04:59:13;;;;;;;7.45;1.08;;;10.90;99.90;;;;;;4993409;28;20076;-63
2023/01/05 05:01:39;;;;;;;7.03;1.38;;;10.90;99.90;;;;;;4992019;28;20075;-64
2023/01/05 05:04:09;;;;;;;7.15;1.42;;;10.90;99.90;;;;;;4992241;28;20027;-64
2023/01/05 05:06:35;;;;;;;3.80;1.17;;;11.00;99.90;;;;;;5003480;28;20018;-64
2023/01/05 05:09:02;;;;;;;8.85;1.30;;;11.00;99.90;;;;;;5012533;28;20067;-64
2023/01/05 05:11:29;;;;;;;6.93;1.17;;;11.10;99.90;;;;;;5017890;28;20029;-64
2023/01/05 05:13:55;;;;;;;4.97;1.10;;;11.00;99.90;;;;;;4994322;28;20034;-64
2023/01/05 05:16:22;;;;;;;6.05;1.13;;;11.00;99.80;;;;;;4997906;28;20056;-64
2023/01/05 05:18:49;;;;;;;4.20;0.95;;;11.00;99.80;;;;;;4992361;28;20030;-64
2023/01/05 05:21:20;;;;;;;8.25;1.30;;;11.00;99.70;;;;;;4997641;28;20033;-64
2023/01/05 05:23:45;;;;;;;6.72;0.90;;;11.10;99.60;;;;;;5014318;28;20100;-64
2023/01/05 05:26:11;;;;;;;5.25;1.08;;;11.10;99.70;;;;;;4995145;28;20112;-64
2023/01/05 05:28:37;;;;;;;4.63;0.75;;;11.10;99.40;;;;;;5009157;28;20033;-64
2023/01/05 05:31:03;;;;;;;4.22;0.82;;;11.20;99.20;;;;;;5008499;28;20116;-64
2023/01/05 05:33:29;;;;;;;5.65;1.08;;;11.20;99.40;;;;;;5018936;28;20409;-64
2023/01/05 05:35:54;;;;;;;5.07;1.00;;;11.20;99.30;;;;;;5015774;28;20493;-64
2023/01/05 05:38:20;;;;;;;5.30;0.85;;;11.20;99.10;;;;;;5011407;28;20037;-64
2023/01/05 05:40:49;;;;;;;4.57;0.90;;;11.20;99.00;;;;;;5011116;28;20386;-64
2023/01/05 05:43:15;;;;;;;4.63;0.70;;;11.30;99.00;;;;;;5007397;28;20076;-63
2023/01/05 05:45:41;;;;;;;5.43;0.77;;;11.30;98.80;;;;;;5010350;28;20842;-64
2023/01/05 05:48:07;;;;;;;5.28;0.90;;;11.20;98.90;;;;;;5004550;28;20045;-64
2023/01/05 05:50:33;;;;;;;5.03;1.17;;;11.20;98.70;;;;;;5011040;28;20033;-64
2023/01/05 05:53:04;;;;;;;3.80;1.00;;;11.30;98.70;;;;;;5014407;28;20036;-64
2023/01/05 05:55:30;;;;;;;2.40;0.80;;;11.30;98.40;;;;;;5013072;28;20037;-64
2023/01/05 05:57:56;;;;;;;5.72;1.20;;;11.30;98.30;;;;;;5014073;28;20512;-64
2023/01/05 06:00:22;;;;;;;4.50;0.90;;;11.40;98.40;;;;;;5012367;28;20493;-64
2023/01/05 06:02:48;;;;;;;1.33;0.50;;;11.20;98.80;;;;;;5011562;28;20805;-64
2023/01/05 06:05:13;;;;;;;4.25;0.73;;;11.20;99.20;;;;;;5011215;28;20486;-64
2023/01/05 06:07:39;;;;;;;3.78;0.60;;;11.20;99.50;;;;;;5006563;28;20510;-64
2023/01/05 06:10:06;;;;;;;2.97;0.73;;;11.20;99.70;;;;;;5011378;28;20118;-64
2023/01/05 06:12:31;;;;;;;4.80;1.23;;;11.20;99.80;;;;;;5008082;28;20029;-64
2023/01/05 06:14:57;;;;;;;3.53;0.93;;;11.20;99.90;;;;;;5014871;28;20064;-64
2023/01/05 06:17:23;;;;;;;3.30;0.60;;;11.20;99.90;;;;;;5016801;28;20042;-64
2023/01/05 06:19:49;;;;;;;4.45;1.13;;;11.30;99.90;;;;;;5007866;28;20135;-64
2023/01/05 06:22:14;;;;;;;6.72;1.35;;;11.30;99.90;;;;;;5015914;28;20030;-63
2023/01/05 06:24:40;;;;;;;6.55;1.00;;;11.30;99.90;;;;;;5020819;28;20040;-64
2023/01/05 06:27:06;;;;;;;5.75;1.20;;;11.30;99.90;;;;;;5014616;28;20036;-64
2023/01/05 06:29:32;;;;;;;2.47;0.95;;;11.30;99.90;;;;;;5012284;28;20079;-63
2023/01/05 06:31:58;;;;;;;2.53;0.65;;;11.20;99.90;;;;;;5013822;28;20120;-64
2023/01/05 06:34:23;;;;;;;5.55;0.90;;;11.20;99.90;;;;;;5015293;28;20120;-64
2023/01/05 06:36:49;;;;;;;6.00;1.02;;;11.20;99.90;;;;;;5014725;28;20022;-64
2023/01/05 06:39:15;;;;;;;3.63;0.70;;;11.20;99.90;;;;;;5017678;28;20025;-64
2023/01/05 06:41:41;;;;;;;4.75;1.13;;;11.20;99.90;;;;;;5018573;28;20033;-64
2023/01/05 06:44:06;;;;;;;4.65;1.20;;;11.10;99.90;;;;;;4996606;28;20553;-64
2023/01/05 06:46:32;;;;;;;2.03;0.70;;;11.10;99.90;;;;;;5017762;28;20116;-64
2023/01/05 06:48:58;;;;;;;6.47;1.40;;;11.10;99.90;;;;;;5015860;28;20576;-64
2023/01/05 06:51:24;;;;;;;4.07;0.70;;;11.10;99.90;;;;;;5007645;28;20034;-64
2023/01/05 06:53:49;;;;;;;2.35;0.80;;;11.10;99.90;;;;;;5014561;28;20556;-63
2023/01/05 06:56:15;;;;;;;5.68;0.85;;;11.10;99.90;;;;;;5014663;28;20026;-63
2023/01/05 06:58:41;;;;;;;5.30;0.80;;;11.10;99.90;;;;;;5012523;28;20029;-64
2023/01/05 07:01:07;;;;;;;2.53;1.15;;;11.10;99.90;;;;;;5017730;28;20688;-63
2023/01/05 07:03:33;;;;;;;1.73;0.50;;;11.10;99.90;;;;;;5019943;28;20482;-64
2023/01/05 07:05:58;;;;;;;5.70;1.10;;;11.20;99.90;;;;;;5012124;28;20034;-64
2023/01/05 07:08:24;;;;;;;5.82;1.23;;;11.20;99.90;;;;;;5018123;28;20132;-64
2023/01/05 07:10:50;;;;;;;3.38;1.02;;;11.20;99.90;;;;;;5013161;28;20030;-64
2023/01/05 07:13:16;;;;;;;1.52;0.80;;;11.20;99.90;;;;;;5017404;28;20579;-63
2023/01/05 07:15:41;;;;;;;5.03;1.08;;;11.20;99.90;;;;;;5015261;28;20112;-64
2023/01/05 07:18:07;;;;;;;5.53;1.00;;;11.00;99.90;;;;;;5010509;28;20084;-63
2023/01/05 07:20:33;;;;;;;1.85;0.45;;;11.00;99.90;;;;;;4993589;28;20399;-63
2023/01/05 07:22:59;;;;;;;3.70;0.68;;;10.70;99.90;;;;;;5012134;28;20030;-64
2023/01/05 07:25:30;;;;;;;2.05;0.38;;;10.60;99.90;;;;;;5017781;28;20076;-64
2023/01/05 07:27:56;;;;;;;2.55;0.95;;;10.50;99.90;;;;;;5017651;28;20034;-63
2023/01/05 07:30:22;;;;;;;1.98;0.50;;;10.60;99.90;;;;;;5012175;28;20053;-63
2023/01/05 07:32:47;;;;;;;2.67;0.43;;;10.60;99.90;;;;;;5007030;28;20091;-64
2023/01/05 07:35:13;;;;;;;1.65;0.30;;;10.50;99.90;;;;;;5011180;28;20501;-63
2023/01/05 07:37:39;;;;;;;0.40;0.30;;;10.50;99.90;;;;;;5014024;28;20034;-63
2023/01/05 07:40:05;;;;;;;0.25;0.20;;;10.40;99.90;;;;;;4996329;28;20025;-63
2023/01/05 07:42:32;;;;;;;0.77;0.35;;;10.40;99.90;;;;;;5013211;28;20079;-63
2023/01/05 07:44:57;;;;;;;6.60;3.33;;;10.40;99.90;;;;;;5009917;28;20398;-64
2023/01/05 07:47:23;;;;;;;1.88;0.70;;;10.40;99.90;;;;;;5013850;28;20041;-64
2023/01/05 07:49:49;;;;;;;0.95;0.60;;;10.40;99.90;;;;;;5018183;28;20091;-64
2023/01/05 07:52:16;;;;;;;0.43;0.20;;;10.40;99.90;;;;;;5013527;28;20543;-64
2023/01/05 07:54:42;;;;;;;0.88;0.40;;;10.50;99.90;;;;;;4990183;28;20072;-64
2023/01/05 07:57:08;;;;;;;1.05;0.40;;;10.40;99.90;;;;;;5010059;28;20065;-64
2023/01/05 07:59:34;;;;;;;0.90;0.60;;;10.40;99.90;;;;;;5013427;28;20190;-64
2023/01/05 08:01:59;;;;;;;0.98;0.30;;;10.30;99.90;;;;;;5010367;28;20026;-64
2023/01/05 08:04:25;;;;;;;1.42;0.40;;;10.20;99.90;;;;;;5016735;28;20036;-64
2023/01/05 08:06:51;;;;;;;1.00;0.30;;;10.20;99.90;;;;;;5014162;28;20112;-64
2023/01/05 08:12:01;;;;;;;1.90;0.32;;;10.10;99.90;;;;;;5000250;28;20030;-63
2023/01/05 08:14:27;;;;;;;2.15;0.82;;;10.10;99.90;;;;;;5012253;28;20049;-64
2023/01/05 08:16:52;;;;;;;2.17;0.43;;;10.10;99.90;;;;;;4993663;28;20037;-64
2023/01/05 08:19:18;;;;;;;2.97;0.63;;;10.10;99.90;;;;;;5010429;28;20084;-64
2023/01/05 08:21:44;;;;;;;7.63;0.98;;;10.20;99.90;;;;;;5013532;28;20033;-64
2023/01/05 08:24:10;;;;;;;1.20;0.50;;;10.30;99.90;;;;;;5008622;28;20021;-63
2023/01/05 08:26:36;;;;;;;0.63;0.47;;;10.30;99.90;;;;;;5003132;28;20501;-63
2023/01/05 08:29:02;;;;;;;5.30;2.45;;;10.40;99.90;;;;;;5012772;28;20033;-64
2023/01/05 08:31:30;;;;;;;4.15;1.50;;;10.50;99.90;;;;;;5011162;28;20707;-64
2023/01/05 08:33:58;;;;;;;6.68;1.45;;;10.50;99.90;;;;;;5013651;28;20051;-64
2023/01/05 08:36:25;;;;;;;4.30;1.20;;;10.50;99.90;;;;;;5013830;28;20241;-64
2023/01/05 08:38:52;;;;;;;5.30;1.50;;;10.60;99.90;;;;;;5010885;28;20403;-64
2023/01/05 08:41:21;;;;;;;4.88;1.10;;;10.70;99.90;;;;;;5011083;28;20028;-64
2023/01/05 08:43:55;;;;;;;4.93;0.77;;;10.80;99.90;;;;;;5013949;28;20089;-63
2023/01/05 08:46:23;;;;;;;3.72;0.90;;;10.80;99.90;;;;;;5014939;28;20041;-63
2023/01/05 08:48:50;;;;;;;5.22;0.85;;;10.80;99.90;;;;;;5018511;28;20419;-64
2023/01/05 08:51:16;;;;;;;3.97;0.82;;;10.80;99.90;;;;;;5020450;28;20112;-64
2023/01/05 08:53:42;;;;;;;5.35;0.93;;;10.80;99.90;;;;;;5012631;28;20037;-64
2023/01/05 08:56:09;;;;;;;5.07;0.90;;;10.90;99.90;;;;;;5011856;28;20037;-64
2023/01/05 08:58:39;;;;;;;6.60;1.85;;;11.10;99.90;;;;;;5011265;28;20029;-64
2023/01/05 09:01:09;;;;;;;6.28;1.55;;;11.20;99.90;;;;;;5007682;28;20074;-64
2023/01/05 09:03:36;;;;;;;3.80;1.40;;;11.40;99.90;;;;;;5000374;28;20022;-64
2023/01/05 09:06:03;;;;;;;5.80;1.33;;;11.60;99.90;;;;;;5009812;28;20060;-66
2023/01/05 09:08:31;;;;;;;7.35;1.33;;;11.70;99.90;;;;;;5013435;28;20037;-64
2023/01/05 09:11:26;;;;;;;2.97;0.90;;;11.80;99.90;;;;;;5013942;28;20044;-66
2023/01/05 09:13:54;;;;;;;4.15;0.90;;;12.20;99.90;;;;;;5009982;28;20502;-67
2023/01/05 09:16:23;;;;;;;4.93;1.25;;;13.20;97.70;;;;;;5010082;28;20026;-65
2023/01/05 09:18:49;;;;;;;3.60;1.15;;;14.80;94.30;;;;;;5010703;28;20034;-65
2023/01/05 09:21:15;;;;;;;4.28;1.20;;;16.00;88.80;;;;;;5011640;28;20696;-65
2023/01/05 09:23:42;;;;;;;2.05;0.68;;;16.60;84.10;;;;;;5011724;28;20032;-64
2023/01/05 09:26:11;;;;;;;5.47;0.77;;;16.90;79.20;;;;;;5016473;28;20690;-64
2023/01/05 09:28:37;;;;;;;2.83;0.70;;;17.30;76.60;;;;;;5018232;28;20033;-64
2023/01/05 09:31:18;;;;;;;1.67;0.75;;;17.30;74.10;;;;;;5013522;28;20038;-68
2023/01/05 09:33:45;;;;;;;3.17;0.80;;;16.30;75.50;;;;;;5010206;28;20101;-67
2023/01/05 09:36:12;;;;;;;4.80;0.95;;;15.70;77.90;;;;;;5012989;28;20053;-68
2023/01/05 09:38:38;;;;;;;5.60;1.20;;;14.90;80.30;;;;;;5015407;28;20048;-67
2023/01/05 09:41:32;;;;;;;2.40;0.80;;;14.20;83.30;;;;;;5011553;28;20017;-67
2023/01/05 09:44:03;;;;;;;4.32;0.68;;;14.30;84.90;;;;;;5008661;28;20128;-67
2023/01/05 09:46:33;;;;;;;3.20;0.75;;;14.10;83.30;;;;;;5009242;28;20026;-67
2023/01/05 09:49:02;;;;;;;5.10;0.90;;;14.20;83.30;;;;;;5008237;28;20029;-67
2023/01/05 09:51:29;;;;;;;6.22;0.75;;;14.30;82.00;;;;;;5011005;28;20033;-67
2023/01/05 09:53:56;;;;;;;6.03;1.00;;;13.90;83.90;;;;;;5011195;28;20040;-66
2023/01/05 09:56:35;;;;;;;3.47;0.82;;;13.80;84.30;;;;;;5015191;28;20045;-66
2023/01/05 09:59:27;;;;;;;2.80;0.70;;;13.20;85.20;;;;;;5017105;28;20037;-67
2023/01/05 10:01:57;;;;;;;3.83;0.70;;;12.60;87.90;;;;;;4982742;28;20039;-67
2023/01/05 10:04:25;;;;;;;2.35;0.63;;;12.10;90.00;;;;;;4973522;28;20691;-67
2023/01/05 10:07:03;;;;;;;5.78;1.13;;;11.70;91.20;;;;;;4974194;28;20030;-66
2023/01/05 10:09:35;;;;;;;3.13;0.77;;;11.50;92.50;;;;;;4968993;28;20041;-66
2023/01/05 10:14:57;;;;;;;3.13;0.70;;;11.50;93.30;;;;;;4969994;28;20041;-66
2023/01/05 10:17:25;;;;;;;2.77;1.07;;;11.90;92.20;;;;;;4974205;28;20503;-66
2023/01/05 10:19:52;;;;;;;2.63;0.70;;;12.70;91.40;;;;;;4978013;28;20515;-66
2023/01/05 10:22:45;;;;;;;3.75;0.75;;;14.30;86.60;;;;;;4981162;28;20034;-67
2023/01/05 10:25:25;;;;;;;2.72;0.70;;;15.80;79.70;;;;;;4973463;28;20514;-66
2023/01/05 10:28:02;;;;;;;2.47;0.55;;;17.60;73.20;;;;;;4973819;28;20035;-67
2023/01/05 10:31:15;;;;;;;5.60;0.77;;;18.80;66.80;;;;;;4974687;28;20057;-66
2023/01/05 10:33:48;;;;;;;1.17;0.50;;;19.80;60.00;;;;;;4877298;29;20123;-66
2023/01/05 10:36:42;;;;;;;5.68;0.95;;;19.90;58.40;;;;;;4967693;28;20050;-66
2023/01/05 10:39:14;;;;;;;3.75;0.90;;;20.00;56.80;;;;;;4970200;28;20030;-71
2023/01/05 10:41:57;;;;;;;3.05;0.68;;;19.10;57.30;;;;;;4975106;28;20134;-65
2023/01/05 10:44:44;;;;;;;3.42;0.80;;;17.90;60.30;;;;;;4980509;28;20118;-65
2023/01/05 10:47:12;;;;;;;3.70;0.80;;;16.50;65.40;;;;;;4971973;28;20073;-65
2023/01/05 10:49:41;;;;;;;3.92;0.50;;;15.10;69.50;;;;;;4972399;28;20709;-65
2023/01/05 10:52:19;;;;;;;6.85;1.08;;;14.10;73.50;;;;;;4966546;28;20042;-68
2023/01/05 10:54:57;;;;;;;4.50;1.55;;;13.40;78.40;;;;;;4970508;28;20062;-67
2023/01/05 10:57:29;;;;;;;4.82;0.68;;;12.80;79.60;;;;;;4975503;28;20038;-66
2023/01/05 10:59:57;;;;;;;5.85;1.40;;;12.40;83.80;;;;;;4961877;28;20031;-68
2023/01/05 11:02:26;;;;;;;3.90;0.90;;;12.10;86.60;;;;;;4974361;28;20046;-67
2023/01/05 11:04:54;;;;;;;6.00;1.33;;;11.90;87.80;;;;;;4970742;28;20038;-68
2023/01/05 11:07:20;;;;;;;4.97;1.30;;;11.80;90.10;;;;;;4975240;28;20129;-68
2023/01/05 11:09:47;;;;;;;6.32;1.27;;;11.80;90.30;;;;;;4969604;28;20037;-68
2023/01/05 11:12:22;;;;;;;5.15;0.90;;;11.90;88.60;;;;;;4982120;28;20042;-66
2023/01/05 11:14:55;;;;;;;4.93;0.75;;;12.00;90.00;;;;;;4969300;28;20063;-66
2023/01/05 11:17:24;;;;;;;3.65;0.65;;;12.00;89.30;;;;;;4955076;28;20044;-66
2023/01/05 11:19:56;;;;;;;4.38;0.93;;;12.00;90.20;;;;;;4974455;28;20059;-66
2023/01/05 11:22:35;;;;;;;4.35;0.80;;;11.90;90.50;;;;;;4977780;28;20093;-65
2023/01/05 11:25:21;;;;;;;2.78;0.80;;;11.80;89.60;;;;;;4971564;28;20538;-66
2023/01/05 11:28:14;;;;;;;5.15;0.63;;;11.60;89.30;;;;;;4977343;28;20049;-66
2023/01/05 11:31:02;;;;;;;3.92;1.48;;;11.50;90.40;;;;;;4975920;28;20685;-67
2023/01/05 11:33:32;;;;;;;5.13;0.98;;;11.40;90.20;;;;;;4970179;28;20034;-67
2023/01/05 11:35:59;;;;;;;7.10;1.67;;;11.30;90.70;;;;;;4960830;28;20031;-68
2023/01/05 11:38:28;;;;;;;1.77;0.40;;;11.30;90.90;;;;;;4976256;28;20086;-67
2023/01/05 11:40:56;;;;;;;1.48;0.80;;;11.30;90.90;;;;;;4980398;28;20026;-67
2023/01/05 11:43:26;;;;;;;3.75;0.70;;;11.10;91.60;;;;;;4975042;28;20408;-67
2023/01/05 11:45:59;;;;;;;4.50;0.60;;;11.00;91.60;;;;;;4969373;28;20035;-67
2023/01/05 11:48:28;;;;;;;1.90;0.63;;;11.00;91.60;;;;;;4970792;28;20823;-66
2023/01/05 11:50:56;;;;;;;4.50;0.73;;;11.10;92.00;;;;;;4976376;28;20030;-65
2023/01/05 11:53:24;;;;;;;3.33;0.60;;;11.10;91.40;;;;;;4970304;28;20038;-67
2023/01/05 11:56:05;;;;;;;4.97;0.73;;;11.10;91.30;;;;;;4969674;28;20030;-67
2023/01/05 11:58:32;;;;;;;3.17;0.75;;;11.00;91.60;;;;;;4978618;28;20054;-68
2023/01/05 12:01:16;;;;;;;6.63;0.82;;;11.00;91.70;;;;;;4972365;28;20132;-68
2023/01/05 12:03:53;;;;;;;5.32;1.10;;;11.00;91.30;;;;;;4957931;28;20112;-66
2023/01/05 12:06:47;;;;;;;3.47;0.63;;;11.00;91.50;;;;;;4973195;28;20061;-65
2023/01/05 12:09:34;;;;;;;3.08;0.60;;;11.00;91.60;;;;;;4977597;28;20458;-66
2023/01/05 12:12:09;;;;;;;1.60;0.98;;;10.90;91.80;;;;;;4971054;28;20026;-65
2023/01/05 12:14:43;;;;;;;4.60;0.73;;;10.90;92.20;;;;;;4967528;28;20054;-65
2023/01/05 12:17:14;;;;;;;4.40;0.68;;;11.00;91.90;;;;;;4976997;28;20049;-67
2023/01/05 12:19:46;;;;;;;3.95;0.70;;;11.00;91.40;;;;;;4970110;28;20127;-66
2023/01/05 12:22:12;;;;;;;4.38;0.50;;;11.00;92.00;;;;;;4971670;28;20487;-69
2023/01/05 12:24:46;;;;;;;6.00;0.80;;;11.00;92.00;;;;;;4969767;28;20078;-68
2023/01/05 12:27:33;;;;;;;2.78;0.40;;;11.10;92.10;;;;;;4971575;28;20058;-66
2023/01/05 12:30:23;;;;;;;17.50;5.90;;;11.20;92.20;;;;;;4953224;28;20063;-67
2023/01/05 12:33:22;;;;;;;4.72;1.30;;;11.20;91.70;;;;;;4973574;28;20075;-65
2023/01/05 12:36:28;;;;;;;4.03;0.60;;;11.20;91.40;;;;;;4969068;28;20039;-65
2023/01/05 12:39:13;;;;;;;6.18;1.02;;;11.30;91.70;;;;;;4979022;28;20058;-66
2023/01/05 12:42:04;;;;;;;1.70;0.40;;;11.40;91.20;;;;;;4970860;28;20088;-66
2023/01/05 12:44:58;;;;;;;3.88;0.82;;;11.20;90.60;;;;;;4942951;28;20541;-66
2023/01/05 12:47:52;;;;;;;5.28;0.80;;;11.20;91.40;;;;;;4971500;28;20092;-66
2023/01/05 12:50:24;;;;;;;2.97;0.65;;;11.20;91.40;;;;;;4971732;28;20066;-67
2023/01/05 12:53:03;;;;;;;4.32;1.17;;;11.10;91.40;;;;;;4971266;28;20034;-67
2023/01/05 12:55:45;;;;;;;4.32;0.70;;;11.10;91.50;;;;;;4970117;28;20050;-67
2023/01/05 12:58:17;;;;;;;4.10;0.70;;;11.20;92.10;;;;;;4966935;28;20077;-65
2023/01/05 13:00:47;;;;;;;4.38;0.82;;;11.20;92.00;;;;;;4947831;28;20088;-67
2023/01/05 13:03:22;;;;;;;4.95;0.85;;;11.20;92.10;;;;;;4970074;28;20551;-67
2023/01/05 13:05:58;;;;;;;6.95;1.00;;;11.20;91.60;;;;;;4970395;28;20035;-66
2023/01/05 13:08:49;;;;;;;5.00;1.00;;;11.20;91.80;;;;;;4970953;28;20089;-65
2023/01/05 13:11:26;;;;;;;3.75;0.70;;;11.20;91.40;;;;;;4973457;28;20576;-69
2023/01/05 13:14:17;;;;;;;3.50;0.80;;;11.10;91.20;;;;;;4965475;28;20037;-74
2023/01/05 13:16:49;;;;;;;5.78;1.52;;;11.10;91.60;;;;;;4967499;28;20043;-68
2023/01/05 13:19:30;;;;;;;3.17;0.85;;;11.10;91.90;;;;;;4971965;28;20034;-65
2023/01/05 13:21:59;;;;;;;5.57;1.20;;;11.10;91.70;;;;;;4968916;28;20500;-65
2023/01/05 13:24:28;;;;;;;6.45;1.00;;;11.10;92.10;;;;;;4969322;28;20043;-66
2023/01/05 13:26:56;;;;;;;5.20;0.80;;;11.10;92.00;;;;;;4965905;28;20026;-66
2023/01/05 13:29:38;;;;;;;6.30;0.93;;;11.00;91.80;;;;;;4968523;28;20463;-66
2023/01/05 13:32:19;;;;;;;8.70;1.02;;;10.90;92.10;;;;;;4971157;28;20050;-66
2023/01/05 13:35:23;;;;;;;2.85;0.60;;;10.90;92.40;;;;;;4973622;28;20026;-66
2023/01/05 13:38:23;;;;;;;6.22;1.30;;;11.00;92.20;;;;;;4972439;28;20387;-66
2023/01/05 13:41:07;;;;;;;2.90;0.80;;;11.00;92.40;;;;;;4963545;28;20085;-66